HEW weather

CLOSED Athen Helenikon Airport
Athens, Attica, Greece

Public forecast

Using degrees Celsius for public forecast. Weather courtesy of forecast.io.

Closest aviation weather report (METAR) to Athen Helenikon Airport

Closest report is Eleftherios Venizelos International Airport, 10.7 nm (19.7 km) ENE. Retrieved 2019/10/23 06:20 UTC (5 minutes ago):

LGAV 230620Z 35014KT 9999 FEW030 20/12 Q1020 NOSIG

Closest aviation forecast (TAF) to Athen Helenikon Airport

Closest forecast is Eleftherios Venizelos International Airport, 10.7 nm (19.7 km) ENE. Retrieved 2019/10/23 06:12 UTC (13 minutes ago):

TAF TAF LGAV 230500Z 2306/2406 02012G22KT 9999 FEW020 BECMG 2306/2308 02022G32KT